createdAt,value
2022-11-24T00:00:34.140Z,4.32
2022-11-24T00:01:34.149Z,4.31
2022-11-24T00:02:34.229Z,4.33
2022-11-24T00:03:34.209Z,4.36
2022-11-24T00:04:34.392Z,4.35
2022-11-24T00:05:34.178Z,4.38
2022-11-24T00:06:34.185Z,4.40
2022-11-24T00:07:34.256Z,4.41
2022-11-24T00:08:34.205Z,4.41
2022-11-24T00:09:34.215Z,4.41
2022-11-24T00:10:34.223Z,4.41
2022-11-24T00:11:34.232Z,4.40
2022-11-24T00:12:34.237Z,4.42
2022-11-24T00:13:34.249Z,4.42
2022-11-24T00:14:34.453Z,4.45
2022-11-24T00:15:34.264Z,4.46
2022-11-24T00:16:34.352Z,4.48
2022-11-24T00:17:34.280Z,4.49
2022-11-24T00:18:34.286Z,4.51
2022-11-24T00:19:34.295Z,4.50
2022-11-24T00:20:34.299Z,4.52
2022-11-24T00:21:34.304Z,4.52
2022-11-24T00:22:34.315Z,4.53
2022-11-24T00:23:34.319Z,4.53
2022-11-24T00:24:34.619Z,4.54
2022-11-24T00:25:34.341Z,4.56
2022-11-24T00:26:34.353Z,4.56
2022-11-24T00:27:34.369Z,4.58
2022-11-24T00:28:34.378Z,4.58
2022-11-24T00:29:34.389Z,4.58
2022-11-24T00:30:34.429Z,4.57
2022-11-24T00:31:34.463Z,4.61
2022-11-24T00:32:34.415Z,4.60
2022-11-24T00:33:34.418Z,4.60
2022-11-24T00:34:34.769Z,4.59
2022-11-24T00:35:34.445Z,4.63
2022-11-24T00:36:34.449Z,4.62
2022-11-24T00:37:34.463Z,4.62
2022-11-24T00:38:34.472Z,4.62
2022-11-24T00:39:34.488Z,4.61
2022-11-24T00:40:35.159Z,4.62
2022-11-24T00:41:34.498Z,4.62
2022-11-24T00:42:34.507Z,4.63
2022-11-24T00:43:34.517Z,4.64
2022-11-24T00:44:34.718Z,4.64
2022-11-24T00:45:34.565Z,4.65
2022-11-24T00:46:34.614Z,4.65
2022-11-24T00:47:34.551Z,4.67
2022-11-24T00:48:34.555Z,4.67
2022-11-24T00:49:34.561Z,4.66
2022-11-24T00:50:34.566Z,4.67
2022-11-24T00:51:34.578Z,4.68
2022-11-24T00:52:34.581Z,4.68
2022-11-24T00:53:34.596Z,4.67
2022-11-24T00:54:34.941Z,4.70
2022-11-24T00:55:34.606Z,4.69
2022-11-24T00:56:34.615Z,4.69
2022-11-24T00:57:34.656Z,4.70
2022-11-24T00:58:34.632Z,4.71
2022-11-24T00:59:34.638Z,4.71
2022-11-24T01:00:34.642Z,4.71
2022-11-24T01:01:34.682Z,4.72
2022-11-24T01:02:34.748Z,4.72
2022-11-24T01:03:34.672Z,4.75
2022-11-24T01:04:34.892Z,4.72
2022-11-24T01:05:34.700Z,4.74
2022-11-24T01:06:34.697Z,4.74
2022-11-24T01:07:34.792Z,4.74
2022-11-24T01:08:34.714Z,4.75
2022-11-24T01:09:34.723Z,4.76
2022-11-24T01:10:34.733Z,4.76
2022-11-24T01:11:34.735Z,4.78
2022-11-24T01:12:34.744Z,4.78
2022-11-24T01:13:34.762Z,4.79
2022-11-24T01:14:35.017Z,4.79
2022-11-24T01:15:34.844Z,4.80
2022-11-24T01:16:34.776Z,4.81
2022-11-24T01:17:34.790Z,4.83
2022-11-24T01:18:34.796Z,4.81
2022-11-24T01:19:34.804Z,4.83
2022-11-24T01:20:34.810Z,4.84
2022-11-24T01:21:34.815Z,4.83
2022-11-24T01:22:34.832Z,4.85
2022-11-24T01:23:34.840Z,4.88
2022-11-24T01:24:35.088Z,4.88
2022-11-24T01:25:34.857Z,4.89
2022-11-24T01:26:34.861Z,4.90
2022-11-24T01:27:34.867Z,4.91
2022-11-24T01:28:34.885Z,4.92
2022-11-24T01:29:34.896Z,4.91
2022-11-24T01:30:34.926Z,4.92
2022-11-24T01:31:34.906Z,4.92
2022-11-24T01:32:34.918Z,4.94
2022-11-24T01:33:34.927Z,4.94
2022-11-24T01:34:35.150Z,4.95
2022-11-24T01:52:35.467Z,5.03
2022-11-24T01:53:35.123Z,5.03
2022-11-24T01:54:35.440Z,5.01
2022-11-24T01:55:35.145Z,5.00
2022-11-24T01:56:35.164Z,5.00
2022-11-24T01:57:35.175Z,5.00
2022-11-24T01:58:35.185Z,5.01
2022-11-24T01:59:35.198Z,5.04
2022-11-24T02:00:35.204Z,5.03
2022-11-24T02:01:35.226Z,5.02
2022-11-24T02:02:35.317Z,5.04
2022-11-24T02:03:35.227Z,5.04
2022-11-24T02:04:35.496Z,5.05
2022-11-24T02:05:35.240Z,5.06
2022-11-24T02:06:35.258Z,5.07
2022-11-24T02:07:35.356Z,5.08
2022-11-24T02:08:35.275Z,5.07
2022-11-24T02:09:35.288Z,5.08
2022-11-24T02:10:35.298Z,5.06
2022-11-24T02:11:35.307Z,5.08
2022-11-24T02:12:35.317Z,5.11
2022-11-24T02:13:35.327Z,5.12
2022-11-24T02:14:35.655Z,5.09
2022-11-24T02:15:35.413Z,5.09
2022-11-24T02:16:35.355Z,5.10
2022-11-24T02:17:35.374Z,5.11
2022-11-24T02:18:35.375Z,5.13
2022-11-24T02:19:35.379Z,5.12
2022-11-24T02:20:35.386Z,5.14
2022-11-24T02:21:35.400Z,5.14
2022-11-24T02:22:35.411Z,5.16
2022-11-24T02:23:35.417Z,5.16
2022-11-24T02:24:35.654Z,5.15
2022-11-24T02:25:35.433Z,5.16
2022-11-24T02:26:35.445Z,5.16
2022-11-24T02:27:35.450Z,5.16
2022-11-24T02:28:35.472Z,5.16
2022-11-24T02:29:35.499Z,5.18
2022-11-24T02:30:35.488Z,5.18
2022-11-24T02:31:35.625Z,5.22
2022-11-24T02:32:35.505Z,5.19
2022-11-24T02:33:35.515Z,5.21
2022-11-24T02:34:35.751Z,5.20
2022-11-24T02:35:35.531Z,5.20
2022-11-24T02:36:35.533Z,5.20
2022-11-24T02:37:35.540Z,5.21
2022-11-24T02:38:35.554Z,5.21
2022-11-24T02:39:35.555Z,5.20
2022-11-24T02:40:35.561Z,5.22
2022-11-24T02:41:35.571Z,5.20
2022-11-24T02:42:35.577Z,5.21
2022-11-24T02:43:35.584Z,5.19
2022-11-24T02:44:35.812Z,5.21
2022-11-24T02:45:35.603Z,5.20
2022-11-24T02:46:35.668Z,5.22
2022-11-24T02:47:35.624Z,5.20
2022-11-24T02:48:35.636Z,5.19
2022-11-24T02:49:35.640Z,5.20
2022-11-24T02:50:35.646Z,5.18
2022-11-24T02:51:35.653Z,5.14
2022-11-24T02:52:35.660Z,5.11
2022-11-24T02:53:35.668Z,5.09
2022-11-24T02:54:36.022Z,5.06
2022-11-24T02:55:35.691Z,5.04
2022-11-24T02:56:35.692Z,5.02
2022-11-24T02:57:35.710Z,5.00
2022-11-24T02:58:35.717Z,4.93
2022-11-24T02:59:35.725Z,4.90
2022-11-24T03:00:35.737Z,4.86
2022-11-24T03:01:35.777Z,4.83
2022-11-24T03:02:35.820Z,4.79
2022-11-24T03:03:35.763Z,4.75
2022-11-24T03:04:36.058Z,4.71
2022-11-24T03:05:35.783Z,4.66
2022-11-24T03:06:35.796Z,4.61
2022-11-24T03:07:35.869Z,4.57
2022-11-24T03:08:35.810Z,4.52
2022-11-24T03:09:35.815Z,4.48
2022-11-24T03:10:35.832Z,4.43
2022-11-24T03:11:35.844Z,4.39
2022-11-24T03:12:35.852Z,4.35
2022-11-24T03:13:35.860Z,4.31
2022-11-24T03:14:36.201Z,4.28
2022-11-24T03:15:35.940Z,4.29
2022-11-24T03:16:35.886Z,4.24
2022-11-24T03:17:35.894Z,4.21
2022-11-24T03:18:35.907Z,4.20
2022-11-24T03:19:35.902Z,4.18
2022-11-24T03:20:35.915Z,4.16
2022-11-24T03:21:35.924Z,4.16
2022-11-24T03:22:35.930Z,4.12
2022-11-24T03:23:35.946Z,4.12
2022-11-24T03:24:36.270Z,4.07
2022-11-24T03:25:35.962Z,4.04
2022-11-24T03:26:35.973Z,4.05
2022-11-24T03:27:35.994Z,4.06
2022-11-24T03:28:35.990Z,4.07
2022-11-24T03:29:36.002Z,4.12
2022-11-24T03:30:36.019Z,4.15
2022-11-24T03:31:36.085Z,4.20
2022-11-24T03:32:36.040Z,4.21
2022-11-24T03:33:36.047Z,4.19
2022-11-24T03:34:36.363Z,4.17
2022-11-24T03:35:36.074Z,4.13
2022-11-24T03:36:36.078Z,4.11
2022-11-24T03:37:36.095Z,4.13
2022-11-24T03:38:36.096Z,4.05
2022-11-24T03:39:36.107Z,4.02
2022-11-24T03:40:36.115Z,4.00
2022-11-24T03:41:36.126Z,3.96
2022-11-24T03:42:36.142Z,3.94
2022-11-24T03:43:40.546Z,3.91
2022-11-24T03:44:36.402Z,3.90
2022-11-24T03:45:45.760Z,3.90
2022-11-24T03:46:36.250Z,3.88
2022-11-24T03:47:36.196Z,3.91
2022-11-24T03:48:36.222Z,3.95
2022-11-24T03:49:36.311Z,3.98
2022-11-24T03:50:36.219Z,4.04
2022-11-24T03:51:36.220Z,4.10
2022-11-24T03:52:36.235Z,4.16
2022-11-24T03:53:36.235Z,4.21
2022-11-24T03:54:36.380Z,4.25
2022-11-24T03:55:36.249Z,4.32
2022-11-24T03:56:36.254Z,4.38
2022-11-24T03:57:36.261Z,4.43
2022-11-24T03:58:36.277Z,4.49
2022-11-24T03:59:36.277Z,4.55
2022-11-24T04:00:36.284Z,4.61
2022-11-24T04:01:36.380Z,4.65
2022-11-24T04:02:36.382Z,4.68
2022-11-24T04:03:36.318Z,4.75
2022-11-24T04:04:36.393Z,4.79
2022-11-24T04:05:36.339Z,4.81
2022-11-24T04:06:36.350Z,4.85
2022-11-24T04:07:36.418Z,4.90
2022-11-24T04:08:36.375Z,4.92
2022-11-24T04:09:36.390Z,4.94
2022-11-24T04:10:36.395Z,4.98
2022-11-24T04:11:36.409Z,4.98
2022-11-24T04:12:36.415Z,5.00
2022-11-24T04:13:36.425Z,5.02
2022-11-24T04:14:36.846Z,5.04
2022-11-24T04:15:36.443Z,5.05
2022-11-24T04:16:36.519Z,5.04
2022-11-24T04:17:36.467Z,5.09
2022-11-24T04:18:36.478Z,5.08
2022-11-24T04:19:36.489Z,5.08
2022-11-24T04:20:36.502Z,5.10
2022-11-24T04:21:36.511Z,5.10
2022-11-24T04:22:36.523Z,5.12
2022-11-24T04:23:36.536Z,5.13
2022-11-24T04:24:36.597Z,5.13
2022-11-24T04:25:36.545Z,5.16
2022-11-24T04:26:36.550Z,5.16
2022-11-24T04:27:36.563Z,5.16
2022-11-24T04:28:36.573Z,5.19
2022-11-24T04:29:36.580Z,5.20
2022-11-24T04:30:36.590Z,5.20
2022-11-24T04:31:36.689Z,5.19
2022-11-24T04:32:36.611Z,5.21
2022-11-24T04:33:36.619Z,5.24
2022-11-24T04:34:36.854Z,5.22
2022-11-24T04:35:36.634Z,5.23
2022-11-24T04:36:36.653Z,5.23
2022-11-24T04:37:36.652Z,5.24
2022-11-24T04:39:20.457Z,5.26
2022-11-24T04:39:36.670Z,5.26
2022-11-24T04:40:36.692Z,5.26
2022-11-24T04:41:36.692Z,5.26
2022-11-24T04:42:36.701Z,5.29
2022-11-24T04:43:40.539Z,5.30
2022-11-24T04:44:36.880Z,5.31
2022-11-24T04:45:36.730Z,5.30
2022-11-24T04:46:36.834Z,5.31
2022-11-24T04:47:36.749Z,5.32
2022-11-24T04:48:36.759Z,5.33
2022-11-24T04:49:36.765Z,5.34
2022-11-24T04:50:36.779Z,5.37
2022-11-24T04:51:36.796Z,5.37
2022-11-24T04:52:36.804Z,5.39
2022-11-24T04:53:36.811Z,5.38
2022-11-24T04:54:36.822Z,5.38
2022-11-24T04:55:36.826Z,5.38
2022-11-24T04:56:36.833Z,5.41
2022-11-24T04:57:36.847Z,5.42
2022-11-24T04:58:36.849Z,5.43
2022-11-24T04:59:36.862Z,5.43
2022-11-24T05:00:36.874Z,5.44
2022-11-24T05:01:36.942Z,5.44
2022-11-24T05:02:36.892Z,5.46
2022-11-24T05:03:36.899Z,5.47
2022-11-24T05:04:37.277Z,5.47
2022-11-24T05:05:36.925Z,5.48
2022-11-24T05:06:36.929Z,5.48
2022-11-24T05:07:36.982Z,5.49
2022-11-24T05:08:36.951Z,5.49
2022-11-24T05:09:58.341Z,5.51
2022-11-24T05:10:36.964Z,5.51
2022-11-24T05:11:36.982Z,5.53
2022-11-24T05:12:36.991Z,5.54
2022-11-24T05:13:37.003Z,5.55
2022-11-24T05:14:37.013Z,5.54
2022-11-24T05:15:37.017Z,5.56
2022-11-24T05:16:37.077Z,5.56
2022-11-24T05:17:37.045Z,5.56
2022-11-24T05:18:37.054Z,5.56
2022-11-24T05:19:37.061Z,5.57
2022-11-24T05:20:37.071Z,5.58
2022-11-24T05:21:37.076Z,5.60
2022-11-24T05:22:37.081Z,5.60
2022-11-24T05:23:37.102Z,5.62
2022-11-24T05:24:37.105Z,5.62
2022-11-24T05:25:37.122Z,5.62
2022-11-24T05:26:37.127Z,5.62
2022-11-24T05:27:37.139Z,5.64
2022-11-24T05:28:37.145Z,5.64
2022-11-24T05:29:37.157Z,5.64
2022-11-24T05:30:37.165Z,5.65
2022-11-24T05:31:37.245Z,5.67
2022-11-24T05:32:37.183Z,5.66
2022-11-24T05:33:37.199Z,5.68
2022-11-24T05:34:37.207Z,5.67
2022-11-24T05:35:37.217Z,5.68
2022-11-24T05:36:37.226Z,5.67
2022-11-24T05:37:37.238Z,5.68
2022-11-24T05:38:37.253Z,5.67
2022-11-24T05:39:37.264Z,5.67
2022-11-24T05:40:37.274Z,5.67
2022-11-24T05:41:37.287Z,5.68
2022-11-24T05:42:39.051Z,5.67
2022-11-24T05:43:37.312Z,5.70
2022-11-24T05:44:37.329Z,5.70
2022-11-24T05:45:37.329Z,5.70
2022-11-24T05:46:37.391Z,5.72
2022-11-24T05:47:37.395Z,5.71
2022-11-24T05:48:37.366Z,5.71
2022-11-24T05:49:37.376Z,5.73
2022-11-24T05:50:37.385Z,5.72
2022-11-24T05:51:37.396Z,5.73
2022-11-24T05:52:37.410Z,5.73
2022-11-24T05:53:37.419Z,5.73
2022-11-24T05:54:37.434Z,5.73
2022-11-24T05:55:37.444Z,5.73
2022-11-24T05:56:37.455Z,5.74
2022-11-24T05:57:37.466Z,5.73
2022-11-24T05:58:37.479Z,5.74
2022-11-24T05:59:37.481Z,5.75
2022-11-24T06:00:37.513Z,5.76
2022-11-24T06:01:37.612Z,5.77
2022-11-24T06:02:37.661Z,5.79
2022-11-24T06:03:37.528Z,5.77
2022-11-24T06:04:37.637Z,5.80
2022-11-24T06:05:37.542Z,5.81
2022-11-24T06:06:37.560Z,5.82
2022-11-24T06:07:37.632Z,5.82
2022-11-24T06:08:37.580Z,5.83
2022-11-24T06:09:37.584Z,5.82
2022-11-24T06:10:37.599Z,5.83
2022-11-24T06:11:37.611Z,5.84
2022-11-24T06:12:37.623Z,5.86
2022-11-24T06:13:37.712Z,5.85
2022-11-24T06:14:37.640Z,5.84
2022-11-24T06:15:37.747Z,5.84
2022-11-24T06:16:37.790Z,5.82
2022-11-24T06:17:37.664Z,5.84
2022-11-24T06:18:37.676Z,5.84
2022-11-24T06:19:41.843Z,5.86
2022-11-24T06:20:37.708Z,5.87
2022-11-24T06:21:37.707Z,5.88
2022-11-24T06:22:37.730Z,5.87
2022-11-24T06:23:37.739Z,5.88
2022-11-24T06:24:37.751Z,5.88
2022-11-24T06:25:37.765Z,5.89
2022-11-24T06:26:37.775Z,5.90
2022-11-24T06:27:37.779Z,5.89
2022-11-24T06:28:37.791Z,5.88
2022-11-24T06:29:37.790Z,5.89
2022-11-24T06:30:37.803Z,5.88
2022-11-24T06:31:37.880Z,5.88
2022-11-24T06:32:37.813Z,5.89
2022-11-24T06:33:37.828Z,5.89
2022-11-24T06:34:37.836Z,5.89
2022-11-24T06:35:37.848Z,5.90
2022-11-24T06:36:37.857Z,5.90
2022-11-24T06:37:37.865Z,5.92
2022-11-24T06:38:37.885Z,5.92
2022-11-24T06:39:37.897Z,5.97
2022-11-24T06:40:37.906Z,5.96
2022-11-24T06:41:37.906Z,5.97
2022-11-24T06:42:37.923Z,5.97
2022-11-24T06:43:37.932Z,5.98
2022-11-24T06:44:37.939Z,5.97
2022-11-24T06:45:37.996Z,5.99
2022-11-24T06:46:37.963Z,5.97
2022-11-24T06:47:37.973Z,5.96
2022-11-24T06:48:37.980Z,5.97
2022-11-24T06:49:37.992Z,5.95
2022-11-24T06:50:37.998Z,5.94
2022-11-24T06:51:38.019Z,5.95
2022-11-24T06:52:38.015Z,5.96
2022-11-24T06:53:38.122Z,5.97
2022-11-24T06:54:38.042Z,5.99
2022-11-24T06:55:38.056Z,5.99
2022-11-24T06:56:38.068Z,6.01
2022-11-24T06:57:38.078Z,6.01
2022-11-24T06:58:38.093Z,6.02
2022-11-24T06:59:38.106Z,6.03
2022-11-24T07:00:38.196Z,6.05
2022-11-24T07:01:38.169Z,6.07
2022-11-24T07:02:42.655Z,6.08
2022-11-24T07:03:38.152Z,6.09
2022-11-24T07:04:38.164Z,6.06
2022-11-24T07:05:38.174Z,6.05
2022-11-24T07:06:38.185Z,6.03
2022-11-24T07:07:38.205Z,6.00
2022-11-24T07:08:38.206Z,5.97
2022-11-24T07:09:38.222Z,5.90
2022-11-24T07:10:38.244Z,5.85
2022-11-24T07:11:38.247Z,5.80
2022-11-24T07:12:38.259Z,5.79
2022-11-24T07:13:38.263Z,5.76
2022-11-24T07:14:38.276Z,5.77
2022-11-24T07:15:38.286Z,5.78
2022-11-24T07:16:38.332Z,5.82
2022-11-24T07:17:38.310Z,5.82
2022-11-24T07:18:38.320Z,5.84
2022-11-24T07:19:38.336Z,5.87
2022-11-24T07:20:38.345Z,5.86
2022-11-24T07:21:38.360Z,5.86
2022-11-24T07:22:38.371Z,5.85
2022-11-24T07:23:38.395Z,5.83
2022-11-24T07:24:38.386Z,5.84
2022-11-24T07:25:38.398Z,5.83
2022-11-24T07:26:38.412Z,5.81
2022-11-24T07:27:38.422Z,5.79
2022-11-24T07:28:38.432Z,5.77
2022-11-24T07:29:38.445Z,5.76
2022-11-24T07:30:38.458Z,5.75
2022-11-24T07:31:38.551Z,5.73
2022-11-24T07:32:38.486Z,5.76
2022-11-24T07:33:38.492Z,5.78
2022-11-24T07:34:38.512Z,5.80
2022-11-24T07:35:38.517Z,5.81
2022-11-24T07:36:38.531Z,5.81
2022-11-24T07:37:38.541Z,5.83
2022-11-24T07:38:38.562Z,5.84
2022-11-24T07:39:38.560Z,5.84
2022-11-24T07:40:38.566Z,5.86
2022-11-24T07:41:38.586Z,5.89
2022-11-24T07:42:38.588Z,5.91
2022-11-24T07:43:38.597Z,5.97
2022-11-24T07:44:38.598Z,5.99
2022-11-24T07:45:38.628Z,6.01
2022-11-24T07:46:38.626Z,6.03
2022-11-24T07:47:38.638Z,6.05
2022-11-24T07:48:38.638Z,6.05
2022-11-24T07:49:38.650Z,5.98
2022-11-24T07:50:38.656Z,5.93
2022-11-24T07:51:38.660Z,5.91
2022-11-24T07:52:38.673Z,5.88
2022-11-24T07:53:38.679Z,5.87
2022-11-24T07:54:38.688Z,5.84
2022-11-24T07:55:38.696Z,5.82
2022-11-24T07:56:38.709Z,5.86
2022-11-24T07:57:38.719Z,5.84
2022-11-24T07:58:38.727Z,5.85
2022-11-24T07:59:38.738Z,5.87
2022-11-24T08:00:38.750Z,5.89
2022-11-24T08:01:38.809Z,5.91
2022-11-24T08:02:38.771Z,5.93
2022-11-24T08:03:38.833Z,5.97
2022-11-24T08:04:38.793Z,5.99
2022-11-24T08:05:54.455Z,6.00
2022-11-24T08:06:43.243Z,6.01
2022-11-24T08:07:38.894Z,5.96
2022-11-24T08:08:38.823Z,5.92
2022-11-24T08:09:38.833Z,5.88
2022-11-24T08:10:38.855Z,5.83
2022-11-24T08:11:38.870Z,5.81
2022-11-24T08:12:38.878Z,5.79
2022-11-24T08:13:38.892Z,5.77
2022-11-24T08:14:38.907Z,5.79
2022-11-24T08:15:38.917Z,5.81
2022-11-24T08:16:38.986Z,5.82
2022-11-24T08:17:38.937Z,5.85
2022-11-24T08:18:38.941Z,5.87
2022-11-24T08:19:38.955Z,5.89
2022-11-24T08:20:38.974Z,5.93
2022-11-24T08:21:38.985Z,5.98
2022-11-24T08:22:38.997Z,6.01
2022-11-24T08:23:39.006Z,6.03
2022-11-24T08:24:39.026Z,6.06
2022-11-24T08:25:39.045Z,6.06
2022-11-24T08:26:39.049Z,6.08
2022-11-24T08:27:39.064Z,6.12
2022-11-24T08:28:39.076Z,6.14
2022-11-24T08:29:39.097Z,6.16
2022-11-24T08:30:39.099Z,6.21
2022-11-24T08:31:39.132Z,6.25
2022-11-24T08:32:39.121Z,6.29
2022-11-24T08:33:39.137Z,6.34
2022-11-24T08:34:39.152Z,6.38
2022-11-24T08:35:39.162Z,6.41
2022-11-24T08:36:39.173Z,6.50
2022-11-24T08:37:39.183Z,6.54
2022-11-24T08:38:39.190Z,6.57
2022-11-24T08:39:39.202Z,6.60
2022-11-24T08:40:39.211Z,6.64
2022-11-24T08:41:39.224Z,6.67
2022-11-24T08:42:39.228Z,6.73
2022-11-24T08:43:39.247Z,6.74
2022-11-24T08:44:39.246Z,6.78
2022-11-24T08:45:41.497Z,6.79
2022-11-24T08:46:39.332Z,6.81
2022-11-24T08:47:39.281Z,6.83
2022-11-24T08:48:39.283Z,6.83
2022-11-24T08:49:39.297Z,6.84
2022-11-24T08:50:39.302Z,6.87
2022-11-24T08:51:39.322Z,6.87
2022-11-24T08:52:39.325Z,6.90
2022-11-24T08:53:39.339Z,6.90
2022-11-24T08:54:39.351Z,6.90
2022-11-24T08:55:39.365Z,6.91
2022-11-24T08:56:39.371Z,6.94
2022-11-24T08:57:39.383Z,6.95
2022-11-24T08:58:39.433Z,6.96
2022-11-24T08:59:39.412Z,6.98
2022-11-24T09:00:39.420Z,7.00
2022-11-24T09:01:39.454Z,7.03
2022-11-24T09:02:39.438Z,7.05
2022-11-24T09:03:42.259Z,7.06
2022-11-24T09:04:39.520Z,7.09
2022-11-24T09:06:39.476Z,7.14
2022-11-24T09:07:39.553Z,7.14
2022-11-24T09:08:39.498Z,7.15
2022-11-24T09:09:39.506Z,7.17
2022-11-24T09:10:39.521Z,7.19
2022-11-24T09:11:39.530Z,7.20
2022-11-24T09:12:39.546Z,7.24
2022-11-24T09:13:39.558Z,7.31
2022-11-24T09:14:39.562Z,7.36
2022-11-24T09:15:39.566Z,7.42
2022-11-24T09:16:39.612Z,7.46
2022-11-24T09:17:39.578Z,7.50
2022-11-24T09:18:39.592Z,7.52
2022-11-24T09:19:39.604Z,7.55
2022-11-24T09:20:39.615Z,7.61
2022-11-24T09:21:39.623Z,7.62
2022-11-24T09:22:39.631Z,7.63
2022-11-24T09:23:39.638Z,7.65
2022-11-24T09:24:39.644Z,7.68
2022-11-24T09:25:39.661Z,7.70
2022-11-24T09:26:43.249Z,7.72
2022-11-24T09:27:39.671Z,7.75
2022-11-24T09:28:39.689Z,7.77
2022-11-24T09:29:39.695Z,7.77
2022-11-24T09:30:39.743Z,7.80
2022-11-24T09:31:39.722Z,7.81
2022-11-24T09:32:39.736Z,7.86
2022-11-24T09:33:39.751Z,7.85
2022-11-24T09:34:39.755Z,7.85
2022-11-24T09:35:55.346Z,7.87
2022-11-24T09:36:47.134Z,7.87
2022-11-24T09:37:39.788Z,7.88
2022-11-24T09:38:39.792Z,7.87
2022-11-24T09:39:39.809Z,7.91
2022-11-24T09:40:39.810Z,7.90
2022-11-24T09:41:39.822Z,7.91
2022-11-24T09:42:39.838Z,7.91
2022-11-24T09:43:39.843Z,7.92
2022-11-24T09:44:39.857Z,7.96
2022-11-24T09:46:03.693Z,8.02
2022-11-24T09:46:39.939Z,8.04
2022-11-24T09:47:39.882Z,8.10
2022-11-24T09:48:39.888Z,8.14
2022-11-24T09:49:39.899Z,8.18
2022-11-24T09:50:39.906Z,8.21
2022-11-24T09:51:39.915Z,8.23
2022-11-24T09:52:39.950Z,8.27
2022-11-24T09:53:39.934Z,8.29
2022-11-24T09:54:39.951Z,8.32
2022-11-24T09:55:39.959Z,8.35
2022-11-24T09:56:39.971Z,8.42
2022-11-24T09:57:39.978Z,8.42
2022-11-24T09:58:40.011Z,8.48
2022-11-24T09:59:39.984Z,8.51
2022-11-24T10:00:39.996Z,8.53
2022-11-24T10:01:40.226Z,8.54
2022-11-24T10:02:40.028Z,8.57
2022-11-24T10:03:40.044Z,8.62
2022-11-24T10:04:40.103Z,8.69
2022-11-24T10:05:40.063Z,8.71
2022-11-24T10:06:40.089Z,8.74
2022-11-24T10:07:40.156Z,8.81
2022-11-24T10:08:40.094Z,8.84
2022-11-24T10:09:40.109Z,8.90
2022-11-24T10:10:40.133Z,8.95
2022-11-24T10:11:40.130Z,8.98
2022-11-24T10:12:40.136Z,9.00
2022-11-24T10:13:40.156Z,9.02
2022-11-24T10:14:40.167Z,9.05
2022-11-24T10:15:40.261Z,9.07
2022-11-24T10:16:40.178Z,9.13
2022-11-24T10:17:40.178Z,9.13
2022-11-24T10:18:40.192Z,9.13
2022-11-24T10:19:40.584Z,9.13
2022-11-24T10:20:40.250Z,9.12
2022-11-24T10:21:40.250Z,9.13
2022-11-24T10:22:40.253Z,9.14
2022-11-24T10:23:40.255Z,9.12
2022-11-24T10:24:40.271Z,9.13
2022-11-24T10:25:40.294Z,9.15
2022-11-24T10:26:40.300Z,9.20
2022-11-24T10:27:40.303Z,9.22
2022-11-24T10:28:40.319Z,9.25
2022-11-24T10:29:40.337Z,9.25
2022-11-24T10:30:40.451Z,9.24
2022-11-24T10:31:40.357Z,9.22
2022-11-24T10:32:40.366Z,9.26
2022-11-24T10:33:40.372Z,9.27
2022-11-24T10:34:40.424Z,9.29
2022-11-24T10:35:40.411Z,9.31
2022-11-24T10:36:40.412Z,9.36
2022-11-24T10:37:40.429Z,9.40
2022-11-24T10:38:40.440Z,9.47
2022-11-24T10:39:40.455Z,9.55
2022-11-24T10:41:40.477Z,9.69
2022-11-24T10:42:40.484Z,9.78
2022-11-24T10:43:40.490Z,9.82
2022-11-24T10:44:40.509Z,9.88
2022-11-24T10:45:40.512Z,9.93
2022-11-24T10:46:40.607Z,9.96
2022-11-24T10:47:40.538Z,9.94
2022-11-24T10:48:40.546Z,9.93
2022-11-24T10:49:40.558Z,9.93
2022-11-24T10:50:40.570Z,9.93
2022-11-24T10:51:40.579Z,9.91
2022-11-24T10:52:40.595Z,9.89
2022-11-24T10:53:40.611Z,9.91
2022-11-24T10:54:41.514Z,9.91
2022-11-24T10:55:40.625Z,9.89
2022-11-24T10:56:40.643Z,9.86
2022-11-24T10:57:40.644Z,9.88
2022-11-24T10:58:40.651Z,9.88
2022-11-24T10:59:40.657Z,9.87
2022-11-24T11:00:40.670Z,9.86
2022-11-24T11:01:40.719Z,9.83
2022-11-24T11:02:40.726Z,9.81
2022-11-24T11:03:40.703Z,9.79
2022-11-24T11:04:40.719Z,9.78
2022-11-24T11:05:40.732Z,9.77
2022-11-24T11:06:40.748Z,9.78
2022-11-24T11:07:40.773Z,9.78
2022-11-24T11:08:40.765Z,9.79
2022-11-24T11:09:40.774Z,9.79
2022-11-24T11:10:40.789Z,9.80
2022-11-24T11:11:40.795Z,9.82
2022-11-24T11:12:44.859Z,9.85
2022-11-24T11:13:40.819Z,9.87
2022-11-24T11:14:40.832Z,9.89
2022-11-24T11:15:40.866Z,9.91
2022-11-24T11:16:40.848Z,9.94
2022-11-24T11:17:40.851Z,9.97
2022-11-24T11:18:40.867Z,9.98
2022-11-24T11:19:49.678Z,10.00
2022-11-24T11:20:40.888Z,10.01
2022-11-24T11:21:40.901Z,10.03
2022-11-24T11:22:40.911Z,10.05
2022-11-24T11:23:40.929Z,10.08
2022-11-24T11:24:40.935Z,10.08
2022-11-24T11:25:40.942Z,10.11
2022-11-24T11:26:40.954Z,10.13
2022-11-24T11:27:40.973Z,10.13
2022-11-24T11:28:40.997Z,10.18
2022-11-24T11:31:41.145Z,10.29
2022-11-24T11:34:41.287Z,10.34
2022-11-24T11:35:41.057Z,10.36
2022-11-24T11:36:41.070Z,10.27
2022-11-24T11:37:41.085Z,10.22
2022-11-24T11:38:41.111Z,10.19
2022-11-24T11:39:45.461Z,10.16
2022-11-24T11:40:41.127Z,10.12
2022-11-24T11:41:41.142Z,10.09
2022-11-24T11:43:41.174Z,10.05
2022-11-24T11:44:41.186Z,10.02
2022-11-24T11:45:41.229Z,10.05
2022-11-24T11:46:41.256Z,10.01
2022-11-24T11:47:41.223Z,9.99
2022-11-24T11:48:43.769Z,10.02
2022-11-24T11:49:41.241Z,9.99
2022-11-24T11:50:59.420Z,9.95
2022-11-24T11:51:41.321Z,9.92
2022-11-24T11:52:41.276Z,9.92
2022-11-24T11:53:41.293Z,9.93
2022-11-24T11:54:41.303Z,9.92
2022-11-24T11:55:45.306Z,9.91
2022-11-24T11:56:41.318Z,9.90
2022-11-24T11:57:41.335Z,9.87
2022-11-24T11:58:41.348Z,9.83
2022-11-24T11:59:41.349Z,9.79
2022-11-24T12:00:41.361Z,9.76
2022-11-24T12:01:41.369Z,9.72
2022-11-24T12:02:41.466Z,9.68
2022-11-24T12:03:41.457Z,9.67
2022-11-24T12:04:41.393Z,9.62
2022-11-24T12:05:41.399Z,9.62
2022-11-24T12:06:41.417Z,9.62
2022-11-24T12:07:41.503Z,9.62
2022-11-24T12:09:03.667Z,9.65
2022-11-24T12:09:41.477Z,9.67
2022-11-24T12:10:41.471Z,9.70
2022-11-24T12:11:41.490Z,9.74
2022-11-24T12:12:41.491Z,9.80
2022-11-24T12:13:41.509Z,9.82
2022-11-24T12:14:41.513Z,9.85
2022-11-24T12:15:41.608Z,9.88
2022-11-24T12:16:41.530Z,9.88
2022-11-24T12:17:41.550Z,9.90
2022-11-24T12:18:56.926Z,9.90
2022-11-24T12:19:41.564Z,9.91
2022-11-24T12:20:41.581Z,9.95
2022-11-24T12:21:41.597Z,9.96
2022-11-24T12:22:41.610Z,10.02
2022-11-24T12:23:41.626Z,10.03
2022-11-24T12:24:41.705Z,10.05
2022-11-24T12:25:41.659Z,10.05
2022-11-24T12:26:41.674Z,10.08
2022-11-24T12:27:41.694Z,10.08
2022-11-24T12:28:41.699Z,10.10
2022-11-24T12:29:41.709Z,10.10
2022-11-24T12:30:41.733Z,10.10
2022-11-24T12:31:41.820Z,10.10
2022-11-24T12:32:41.762Z,10.08
2022-11-24T12:33:45.066Z,10.08
2022-11-24T12:34:41.782Z,10.07
2022-11-24T12:35:41.786Z,10.04
2022-11-24T12:36:41.805Z,10.04
2022-11-24T12:37:41.824Z,10.04
2022-11-24T12:38:41.828Z,10.05
2022-11-24T12:39:41.834Z,10.06
2022-11-24T12:40:46.528Z,10.07
2022-11-24T12:41:42.816Z,10.08
2022-11-24T12:42:41.874Z,10.08
2022-11-24T12:43:41.880Z,10.10
2022-11-24T12:44:41.898Z,10.12
2022-11-24T12:45:41.913Z,10.13
2022-11-24T12:46:41.959Z,10.11
2022-11-24T12:47:41.937Z,10.11
2022-11-24T12:48:41.946Z,10.13
2022-11-24T12:49:41.965Z,10.12
2022-11-24T12:50:41.987Z,10.13
2022-11-24T12:51:41.992Z,10.16
2022-11-24T12:52:42.000Z,10.17
2022-11-24T12:53:42.016Z,10.19
2022-11-24T12:54:42.021Z,10.22
2022-11-24T12:55:42.032Z,10.22
2022-11-24T12:56:42.055Z,10.22
2022-11-24T12:57:42.067Z,10.26
2022-11-24T12:58:42.083Z,10.27
2022-11-24T12:59:42.101Z,10.27
2022-11-24T13:00:42.117Z,10.28
2022-11-24T13:01:42.325Z,10.32
2022-11-24T13:02:42.324Z,10.32
2022-11-24T13:03:42.157Z,10.32
2022-11-24T13:04:42.174Z,10.35
2022-11-24T13:05:42.179Z,10.36
2022-11-24T13:06:47.572Z,10.37
2022-11-24T13:07:42.202Z,10.40
2022-11-24T13:08:42.213Z,10.43
2022-11-24T13:09:42.226Z,10.44
2022-11-24T13:11:42.249Z,10.45
2022-11-24T13:12:42.266Z,10.48
2022-11-24T13:13:42.278Z,10.46
2022-11-24T13:14:42.282Z,10.47
2022-11-24T13:15:45.881Z,10.48
2022-11-24T13:16:59.205Z,10.48
2022-11-24T13:18:02.713Z,10.48
2022-11-24T13:18:42.383Z,10.52
2022-11-24T13:19:42.323Z,10.53
2022-11-24T13:20:42.335Z,10.55
2022-11-24T13:21:42.347Z,10.58
2022-11-24T13:22:42.352Z,10.55
2022-11-24T13:23:42.361Z,10.53
2022-11-24T13:24:42.366Z,10.54
2022-11-24T13:25:42.383Z,10.51
2022-11-24T13:26:42.400Z,10.50
2022-11-24T13:27:42.409Z,10.49
2022-11-24T13:29:00.635Z,10.46
2022-11-24T13:29:42.438Z,10.45
2022-11-24T13:30:42.480Z,10.41
2022-11-24T13:31:42.530Z,10.40
2022-11-24T13:32:42.477Z,10.35
2022-11-24T13:33:42.496Z,10.30
2022-11-24T13:34:42.507Z,10.29
2022-11-24T13:35:42.521Z,10.24
2022-11-24T13:36:42.539Z,10.22
2022-11-24T13:37:42.554Z,10.21
2022-11-24T13:38:42.569Z,10.15
2022-11-24T13:39:46.046Z,10.12
2022-11-24T13:40:49.798Z,10.08